Valtellina — ICKF — position and weather

sailwx.info

Track history (hours):
 
Tides and Currents Weather Stations Pressure Air Temp Water Temp Dewpoint Dewpoint Depression Visibility Wind Speed Wind Dir Waves Ship Positions

Valtellina

Last reported at 2014-Sep-20 19:33 UTC. Time now 2014-Sep-20 20:08 UTC.
Position N 38°41' W 009°12'.

Length 184 m; draft 10.1 m.

Type: Ship. MMSI: 247243900.

Date/timePositionNaut miles runAvg speedWind from/ knotsBaromVisibWave heightAir tempDewpointWater temp
2014-Sep-20 19:33N 38°41' W 009°12'0 0.0
2014-Sep-20 18:34N 38°41' W 009°12'2 2.4
2014-Sep-20 17:33N 38°41' W 009°15'8 7.9
2014-Sep-20 16:33N 38°38' W 009°24'1 1.2
2014-Sep-20 15:33N 38°39' W 009°26'2 2.4
2014-Sep-20 14:33N 38°36' W 009°26'8 8.2
2014-Sep-20 13:33N 38°28' W 009°29'1212.1
2014-Sep-20 12:33N 38°16' W 009°31'1212.3
2014-Sep-20 11:33N 38°04' W 009°31'1212.2
2014-Sep-20 10:33N 37°52' W 009°30'1212.1
2014-Sep-20 09:33N 37°40' W 009°28'1211.9
2014-Sep-20 08:31N 37°28' W 009°28'1211.9
2014-Sep-20 07:33N 37°16' W 009°27'4310.8
2014-Sep-20 03:33N 36°39' W 009°01'1212.0
2014-Sep-20 02:32N 36°35' W 008°46'1212.1
2014-Sep-20 01:33N 36°32' W 008°32'15211.3
2014-Sep-19 12:08N 35°60' W 005°28'710.5
2014-Sep-19 11:29N 36°02' W 005°20'  
2014-Sep-16 16:32N 37°34' W 001°03'2 0.2
2014-Sep-16 07:33N 37°33' W 001°06'0 0.0
2014-Sep-16 06:33N 37°33' W 001°06'0 0.0
2014-Sep-16 05:28N 37°33' W 001°06'0 0.0
2014-Sep-16 04:16N 37°33' W 001°06'0 0.0
2014-Sep-16 03:16N 37°33' W 001°06'0 0.0
2014-Sep-14 07:25N 37°33' W 001°06'0 0.0
2014-Sep-14 06:25N 37°33' W 001°06'0 0.0
2014-Sep-13 13:12N 37°33' W 001°06'6 7.2
2014-Sep-13 12:26N 37°32' W 000°59'7 8.3
2014-Sep-13 11:33N 37°31' W 000°50'9 8.6
2014-Sep-13 10:33N 37°30' W 000°39'8 8.2
2014-Sep-13 09:33N 37°31' W 000°29'9 8.6
2014-Sep-13 08:33N 37°36' W 000°20'9 8.8
2014-Sep-13 07:33N 37°39' W 000°09'9 8.8
2014-Sep-13 06:32N 37°42' E 000°01'1010.6
2014-Sep-13 05:33N 37°44' E 000°14'1110.6
2014-Sep-13 04:33N 37°46' E 000°27'1110.9
2014-Sep-13 03:33N 37°47' E 000°41'1110.6
2014-Sep-13 02:33N 37°49' E 000°54'1210.6
2014-Sep-13 01:26N 37°51' E 001°09'910.5
2014-Sep-13 00:33N 37°52' E 001°21'1010.3
2014-Sep-12 23:33N 37°53' E 001°34'1010.3
2014-Sep-12 22:33N 37°55' E 001°47'1010.3
2014-Sep-12 21:33N 37°56' E 001°60'1010.5
2014-Sep-12 20:34N 37°58' E 002°13'1110.5
2014-Sep-12 19:33N 37°59' E 002°26'1110.5
2014-Sep-12 18:33N 38°01' E 002°39'1110.3
2014-Sep-12 17:27N 38°03' E 002°53'910.2
2014-Sep-12 16:33N 38°04' E 003°05'1010.0
2014-Sep-12 15:33N 38°06' E 003°17'10 9.9
2014-Sep-12 14:33N 38°08' E 003°30'10 9.8
2014-Sep-12 13:33N 38°09' E 003°42'10 9.9
2014-Sep-12 12:33N 38°10' E 003°54'1010.1
2014-Sep-12 11:33N 38°11' E 004°07'1010.2
2014-Sep-12 10:33N 38°13' E 004°20'2110.3
2014-Sep-12 08:33N 38°16' E 004°46'1010.1
2014-Sep-12 07:33N 38°18' E 004°58'15110.8
2014-Sep-11 17:32N 38°40' E 008°09'8 8.1
2014-Sep-11 16:33N 38°41' E 008°19'8 8.2
2014-Sep-11 15:33N 38°42' E 008°30'24 8.1
2014-Sep-11 12:32N 38°47' E 009°00'7 7.6
2014-Sep-11 11:33N 38°50' E 009°09'10 8.4
2014-Sep-11 10:20N 38°53' E 009°22'7 8.4
2014-Sep-11 09:33N 38°55' E 009°30'11 8.1
2014-Sep-11 08:10N 39°02' E 009°41'6 7.7
2014-Sep-11 07:24N 39°06' E 009°47'  
Track history (hours):
 
Tides and Currents Weather Stations Pressure Air Temp Water Temp Dewpoint Dewpoint Depression Visibility Wind Speed Wind Dir Waves Ship Positions

Valtellina

Last reported at 2014-Sep-20 19:33 UTC. Time now 2014-Sep-20 20:08 UTC.
Position N 38°41' W 009°12'.

Length 184 m; draft 10.1 m.

Type: Ship. MMSI: 247243900.

Date/timePositionNaut miles runAvg speedWind from/ knotsBaromVisibWave heightAir tempDewpointWater temp
2014-Sep-20 19:33N 38°41' W 009°12'0 0.0
2014-Sep-20 18:34N 38°41' W 009°12'2 2.4
2014-Sep-20 17:33N 38°41' W 009°15'8 7.9
2014-Sep-20 16:33N 38°38' W 009°24'1 1.2
2014-Sep-20 15:33N 38°39' W 009°26'2 2.4
2014-Sep-20 14:33N 38°36' W 009°26'8 8.2
2014-Sep-20 13:33N 38°28' W 009°29'1212.1
2014-Sep-20 12:33N 38°16' W 009°31'1212.3
2014-Sep-20 11:33N 38°04' W 009°31'1212.2
2014-Sep-20 10:33N 37°52' W 009°30'1212.1
2014-Sep-20 09:33N 37°40' W 009°28'1211.9
2014-Sep-20 08:31N 37°28' W 009°28'1211.9
2014-Sep-20 07:33N 37°16' W 009°27'4310.8
2014-Sep-20 03:33N 36°39' W 009°01'1212.0
2014-Sep-20 02:32N 36°35' W 008°46'1212.1
2014-Sep-20 01:33N 36°32' W 008°32'15211.3
2014-Sep-19 12:08N 35°60' W 005°28'710.5
2014-Sep-19 11:29N 36°02' W 005°20'  
2014-Sep-16 16:32N 37°34' W 001°03'2 0.2
2014-Sep-16 07:33N 37°33' W 001°06'0 0.0
2014-Sep-16 06:33N 37°33' W 001°06'0 0.0
2014-Sep-16 05:28N 37°33' W 001°06'0 0.0
2014-Sep-16 04:16N 37°33' W 001°06'0 0.0
2014-Sep-16 03:16N 37°33' W 001°06'0 0.0
2014-Sep-14 07:25N 37°33' W 001°06'0 0.0
2014-Sep-14 06:25N 37°33' W 001°06'0 0.0
2014-Sep-13 13:12N 37°33' W 001°06'6 7.2
2014-Sep-13 12:26N 37°32' W 000°59'7 8.3
2014-Sep-13 11:33N 37°31' W 000°50'9 8.6
2014-Sep-13 10:33N 37°30' W 000°39'8 8.2
2014-Sep-13 09:33N 37°31' W 000°29'9 8.6
2014-Sep-13 08:33N 37°36' W 000°20'9 8.8
2014-Sep-13 07:33N 37°39' W 000°09'9 8.8
2014-Sep-13 06:32N 37°42' E 000°01'1010.6
2014-Sep-13 05:33N 37°44' E 000°14'1110.6
2014-Sep-13 04:33N 37°46' E 000°27'1110.9
2014-Sep-13 03:33N 37°47' E 000°41'1110.6
2014-Sep-13 02:33N 37°49' E 000°54'1210.6
2014-Sep-13 01:26N 37°51' E 001°09'910.5
2014-Sep-13 00:33N 37°52' E 001°21'1010.3
2014-Sep-12 23:33N 37°53' E 001°34'1010.3
2014-Sep-12 22:33N 37°55' E 001°47'1010.3
2014-Sep-12 21:33N 37°56' E 001°60'1010.5
2014-Sep-12 20:34N 37°58' E 002°13'1110.5
2014-Sep-12 19:33N 37°59' E 002°26'1110.5
2014-Sep-12 18:33N 38°01' E 002°39'1110.3
2014-Sep-12 17:27N 38°03' E 002°53'910.2
2014-Sep-12 16:33N 38°04' E 003°05'1010.0
2014-Sep-12 15:33N 38°06' E 003°17'10 9.9
2014-Sep-12 14:33N 38°08' E 003°30'10 9.8
2014-Sep-12 13:33N 38°09' E 003°42'10 9.9
2014-Sep-12 12:33N 38°10' E 003°54'1010.1
2014-Sep-12 11:33N 38°11' E 004°07'1010.2
2014-Sep-12 10:33N 38°13' E 004°20'2110.3
2014-Sep-12 08:33N 38°16' E 004°46'1010.1
2014-Sep-12 07:33N 38°18' E 004°58'15110.8
2014-Sep-11 17:32N 38°40' E 008°09'8 8.1
2014-Sep-11 16:33N 38°41' E 008°19'8 8.2
2014-Sep-11 15:33N 38°42' E 008°30'24 8.1
2014-Sep-11 12:32N 38°47' E 009°00'7 7.6
2014-Sep-11 11:33N 38°50' E 009°09'10 8.4
2014-Sep-11 10:20N 38°53' E 009°22'7 8.4
2014-Sep-11 09:33N 38°55' E 009°30'11 8.1
2014-Sep-11 08:10N 39°02' E 009°41'6 7.7
2014-Sep-11 07:24N 39°06' E 009°47'  

Dump ship's entire track history